createdAt,value
2022-10-05T00:02:46.570Z,10.43
2022-10-05T00:05:49.631Z,14.75
2022-10-05T00:08:51.718Z,11.27
2022-10-05T00:11:54.114Z,13.68
2022-10-05T00:15:02.599Z,8.52
2022-10-05T00:18:13.223Z,18.05
2022-10-05T00:21:22.848Z,13.65
2022-10-05T00:24:25.296Z,7.60
2022-10-05T00:27:37.488Z,7.45
2022-10-05T00:30:40.014Z,11.12
2022-10-05T00:33:42.194Z,7.05
2022-10-05T00:36:45.800Z,7.40
2022-10-05T00:39:49.538Z,7.20
2022-10-05T00:42:58.948Z,6.68
2022-10-05T00:46:24.464Z,9.55
2022-10-05T00:49:49.414Z,7.50
2022-10-05T00:53:29.677Z,8.23
2022-10-05T00:59:42.865Z,6.90
2022-10-05T01:03:01.395Z,10.88
2022-10-05T01:06:44.683Z,10.25
2022-10-05T01:10:11.958Z,8.00
2022-10-05T01:13:19.853Z,7.82
2022-10-05T01:16:31.045Z,8.23
2022-10-05T01:19:51.857Z,9.27
2022-10-05T01:23:09.412Z,12.90
2022-10-05T01:26:48.753Z,5.55
2022-10-05T01:30:06.957Z,12.23
2022-10-05T01:33:31.842Z,11.18
2022-10-05T01:36:48.412Z,7.93
2022-10-05T01:40:08.300Z,8.80
2022-10-05T01:43:18.551Z,5.90
2022-10-05T01:46:33.693Z,7.70
2022-10-05T01:49:44.302Z,8.20
2022-10-05T01:53:12.053Z,8.45
2022-10-05T01:56:39.615Z,7.47
2022-10-05T02:00:03.881Z,8.88
2022-10-05T02:03:24.573Z,6.28
2022-10-05T02:06:32.269Z,6.75
2022-10-05T02:09:42.124Z,7.10
2022-10-05T02:12:48.959Z,7.85
2022-10-05T02:15:57.952Z,7.97
2022-10-05T02:19:20.980Z,11.10
2022-10-05T02:22:29.618Z,5.15
2022-10-05T02:25:37.049Z,4.97
2022-10-05T02:28:52.499Z,8.27
2022-10-05T02:32:00.134Z,6.80
2022-10-05T02:35:14.114Z,5.43
2022-10-05T02:38:24.879Z,7.43
2022-10-05T02:41:50.441Z,5.95
2022-10-05T02:45:26.284Z,8.25
2022-10-05T02:48:52.462Z,8.23
2022-10-05T02:52:08.358Z,6.00
2022-10-05T02:55:19.260Z,6.95
2022-10-05T02:58:25.836Z,7.22
2022-10-05T03:01:37.750Z,6.70
2022-10-05T03:04:48.714Z,17.10
2022-10-05T03:08:19.532Z,5.72
2022-10-05T03:11:40.914Z,8.88
2022-10-05T03:14:57.732Z,12.25
2022-10-05T03:18:27.413Z,6.22
2022-10-05T03:21:53.650Z,5.70
2022-10-05T03:25:18.311Z,9.45
2022-10-05T03:28:37.347Z,6.93
2022-10-05T03:31:58.834Z,7.97
2022-10-05T03:35:27.831Z,5.55
2022-10-05T03:38:53.783Z,7.82
2022-10-05T03:42:26.613Z,6.00
2022-10-05T03:46:04.121Z,7.15
2022-10-05T03:49:17.072Z,12.57
2022-10-05T03:52:28.241Z,7.32
2022-10-05T03:55:36.082Z,6.05
2022-10-05T03:58:50.644Z,8.10
2022-10-05T04:01:58.915Z,12.35
2022-10-05T04:05:10.701Z,8.50
2022-10-05T04:08:48.466Z,6.25
2022-10-05T04:12:12.628Z,8.85
2022-10-05T04:15:41.434Z,6.62
2022-10-05T04:19:06.060Z,5.85
2022-10-05T04:22:32.630Z,5.93
2022-10-05T04:25:42.336Z,8.07
2022-10-05T04:29:03.619Z,7.68
2022-10-05T04:32:15.546Z,6.22
2022-10-05T04:35:28.651Z,8.85
2022-10-05T04:39:09.812Z,9.38
2022-10-05T04:42:17.921Z,8.65
2022-10-05T04:45:32.677Z,14.00
2022-10-05T04:49:03.023Z,8.07
2022-10-05T04:52:24.552Z,10.20
2022-10-05T04:55:58.369Z,10.52
2022-10-05T04:59:36.247Z,9.82
2022-10-05T05:02:48.182Z,10.48
2022-10-05T05:06:17.477Z,9.43
2022-10-05T05:09:33.322Z,11.88
2022-10-05T05:13:18.755Z,10.25
2022-10-05T05:16:40.693Z,12.57
2022-10-05T05:20:19.773Z,17.40
2022-10-05T05:23:51.188Z,14.13
2022-10-05T05:27:13.780Z,6.85
2022-10-05T05:30:35.275Z,10.77
2022-10-05T05:34:13.414Z,11.52
2022-10-05T05:38:10.008Z,11.20
2022-10-05T05:41:39.509Z,10.27
2022-10-05T05:44:49.070Z,10.63
2022-10-05T05:47:54.764Z,12.70
2022-10-05T05:51:08.266Z,18.23
2022-10-05T05:54:29.455Z,12.50
2022-10-05T05:57:41.135Z,9.00
2022-10-05T06:01:30.670Z,13.02
2022-10-05T06:04:50.985Z,10.73
2022-10-05T06:07:55.137Z,20.75
2022-10-05T06:11:21.879Z,13.70
2022-10-05T06:14:43.583Z,16.83
2022-10-05T06:17:52.684Z,13.18
2022-10-05T06:21:01.717Z,16.05
2022-10-05T06:24:10.050Z,12.52
2022-10-05T06:27:23.991Z,17.05
2022-10-05T06:30:37.543Z,13.62
2022-10-05T06:33:54.653Z,13.40
2022-10-05T06:37:17.505Z,18.95
2022-10-05T06:40:33.413Z,16.95
2022-10-05T06:43:56.606Z,18.37
2022-10-05T06:47:13.274Z,15.07
2022-10-05T06:50:39.830Z,10.77
2022-10-05T06:54:03.994Z,12.20
2022-10-05T06:57:44.643Z,20.67
2022-10-05T07:04:08.991Z,12.52
2022-10-05T07:07:32.523Z,10.70
2022-10-05T07:11:10.704Z,15.13
2022-10-05T07:14:31.344Z,18.62
2022-10-05T07:17:49.629Z,10.35
2022-10-05T07:21:22.033Z,15.68
2022-10-05T07:24:41.189Z,14.63
2022-10-05T07:28:00.564Z,14.73
2022-10-05T07:34:15.274Z,25.00
2022-10-05T07:37:45.366Z,13.77
2022-10-05T07:44:17.028Z,16.05
2022-10-05T07:47:36.225Z,13.25
2022-10-05T07:50:46.801Z,18.05
2022-10-05T07:54:03.456Z,12.40
2022-10-05T07:57:26.052Z,15.00
2022-10-05T08:01:00.585Z,15.00
2022-10-05T08:04:13.862Z,11.80
2022-10-05T08:07:17.402Z,38.45
2022-10-05T08:10:37.459Z,17.42
2022-10-05T08:13:51.347Z,18.77
2022-10-05T08:16:58.309Z,26.27
2022-10-05T08:20:10.102Z,16.05
2022-10-05T08:23:38.627Z,20.23
2022-10-05T08:26:47.001Z,17.70
2022-10-05T08:33:14.653Z,17.30
2022-10-05T08:36:27.164Z,25.60
2022-10-05T08:39:40.244Z,28.48
2022-10-05T08:42:54.725Z,21.50
2022-10-05T08:46:21.664Z,24.80
2022-10-05T08:49:46.920Z,16.23
2022-10-05T08:53:26.896Z,15.38
2022-10-05T09:00:00.553Z,21.77
2022-10-05T09:03:34.189Z,16.55
2022-10-05T09:06:50.804Z,16.08
2022-10-05T09:10:22.685Z,17.33
2022-10-05T09:14:11.980Z,11.77
2022-10-05T09:17:39.127Z,15.73
2022-10-05T09:20:50.789Z,12.48
2022-10-05T09:24:14.240Z,10.55
2022-10-05T09:27:20.320Z,15.65
2022-10-05T09:30:43.830Z,14.05
2022-10-05T09:34:00.963Z,10.07
2022-10-05T09:37:22.444Z,11.80
2022-10-05T09:41:04.149Z,14.35
2022-10-05T09:44:31.523Z,12.05
2022-10-05T09:48:11.027Z,15.85
2022-10-05T09:51:58.624Z,10.93
2022-10-05T09:55:29.490Z,11.98
2022-10-05T09:59:10.930Z,13.60
2022-10-05T10:02:38.774Z,12.75
2022-10-05T10:06:11.542Z,10.40
2022-10-05T10:09:38.730Z,11.57
2022-10-05T10:13:13.847Z,9.90
2022-10-05T10:16:32.456Z,10.02
2022-10-05T10:19:52.600Z,9.43
2022-10-05T10:23:14.425Z,9.18
2022-10-05T10:26:35.572Z,10.38
2022-10-05T10:29:49.986Z,10.68
2022-10-05T10:33:30.237Z,14.95
2022-10-05T10:39:57.179Z,11.15
2022-10-05T10:43:18.214Z,11.57
2022-10-05T10:46:47.815Z,5.85
2022-10-05T10:50:26.257Z,9.23
2022-10-05T10:53:48.439Z,11.45
2022-10-05T10:56:59.111Z,10.50
2022-10-05T11:00:23.342Z,10.45
2022-10-05T11:03:31.238Z,10.27
2022-10-05T11:06:45.900Z,7.93
2022-10-05T11:09:56.732Z,12.60
2022-10-05T11:13:24.881Z,15.50
2022-10-05T11:16:34.453Z,11.30
2022-10-05T11:20:06.775Z,12.07
2022-10-05T11:23:44.866Z,16.95
2022-10-05T11:27:05.945Z,12.40
2022-10-05T11:30:14.085Z,14.77
2022-10-05T11:36:33.243Z,11.27
2022-10-05T11:39:55.269Z,14.70
2022-10-05T11:43:09.587Z,13.15
2022-10-05T11:46:30.040Z,11.88
2022-10-05T11:49:58.161Z,12.30
2022-10-05T11:53:11.169Z,11.98
2022-10-05T11:56:36.037Z,15.50
2022-10-05T11:59:49.172Z,9.75
2022-10-05T12:03:28.757Z,10.63
2022-10-05T12:10:16.811Z,7.78
2022-10-05T12:13:33.593Z,8.43
2022-10-05T12:16:55.553Z,9.13
2022-10-05T12:20:02.732Z,9.10
2022-10-05T12:23:25.622Z,11.75
2022-10-05T12:26:35.240Z,8.23
2022-10-05T12:29:55.785Z,10.82
2022-10-05T12:33:17.003Z,7.13
2022-10-05T12:36:46.252Z,8.80
2022-10-05T12:40:13.455Z,9.07
2022-10-05T12:43:33.411Z,9.63
2022-10-05T12:47:06.043Z,6.62
2022-10-05T12:50:20.362Z,4.97
2022-10-05T12:53:52.621Z,2.55
2022-10-05T12:56:59.207Z,3.97
2022-10-05T13:00:23.166Z,3.47
2022-10-05T13:03:33.446Z,2.58
2022-10-05T13:06:52.978Z,3.65
2022-10-05T13:09:59.469Z,3.22
2022-10-05T13:13:37.337Z,5.68
2022-10-05T13:16:45.697Z,7.28
2022-10-05T13:19:57.552Z,5.85
2022-10-05T13:23:18.274Z,5.72
2022-10-05T13:26:46.061Z,4.68
2022-10-05T13:29:54.175Z,2.58
2022-10-05T13:33:45.077Z,3.00
2022-10-05T13:40:13.360Z,5.03
2022-10-05T13:43:38.822Z,3.33
2022-10-05T13:46:57.189Z,8.48
2022-10-05T13:50:15.103Z,6.10
2022-10-05T13:53:36.702Z,6.93
2022-10-05T13:56:48.408Z,4.53
2022-10-05T13:59:58.082Z,14.77
2022-10-05T14:03:03.568Z,5.68
2022-10-05T14:06:15.183Z,8.43
2022-10-05T14:09:22.580Z,4.07
2022-10-05T14:12:26.564Z,6.07
2022-10-05T14:15:33.119Z,6.12
2022-10-05T14:18:38.096Z,6.72
2022-10-05T14:21:50.167Z,10.52
2022-10-05T14:25:08.479Z,7.65
2022-10-05T14:28:32.110Z,5.40
2022-10-05T14:31:36.929Z,5.97
2022-10-05T14:34:45.180Z,5.07
2022-10-05T14:37:53.959Z,7.05
2022-10-05T14:44:15.341Z,11.30
2022-10-05T14:47:23.387Z,7.37
2022-10-05T14:53:56.212Z,8.07
2022-10-05T14:57:04.727Z,6.30
2022-10-05T15:00:13.386Z,8.73
2022-10-05T15:03:21.676Z,6.72
2022-10-05T15:06:37.087Z,6.12
2022-10-05T15:10:07.538Z,5.53
2022-10-05T15:13:20.395Z,6.65
2022-10-05T15:16:39.086Z,5.15
2022-10-05T15:20:00.184Z,5.12
2022-10-05T15:23:26.779Z,9.18
2022-10-05T15:26:47.075Z,6.62
2022-10-05T15:29:59.644Z,9.18
2022-10-05T15:33:12.929Z,12.15
2022-10-05T15:36:22.091Z,5.20
2022-10-05T15:40:01.276Z,8.00
2022-10-05T15:43:11.147Z,10.75
2022-10-05T15:46:18.967Z,7.05
2022-10-05T15:49:33.066Z,6.28
2022-10-05T15:52:50.605Z,12.07
2022-10-05T15:56:07.187Z,11.05
2022-10-05T15:59:25.256Z,6.10
2022-10-05T16:02:37.701Z,7.43
2022-10-05T16:06:13.229Z,7.75
2022-10-05T16:09:44.111Z,12.37
2022-10-05T16:13:05.519Z,7.05
2022-10-05T16:16:33.789Z,9.70
2022-10-05T16:19:51.536Z,12.20
2022-10-05T16:23:06.265Z,9.85
2022-10-05T16:26:15.051Z,8.88
2022-10-05T16:32:46.760Z,10.63
2022-10-05T16:36:06.536Z,5.37
2022-10-05T16:39:21.166Z,17.35
2022-10-05T16:42:38.816Z,10.18
2022-10-05T16:45:53.677Z,13.27
2022-10-05T16:49:15.352Z,13.52
2022-10-05T16:52:21.742Z,14.07
2022-10-05T16:55:37.218Z,12.25
2022-10-05T16:58:47.769Z,8.73
2022-10-05T17:02:17.783Z,12.43
2022-10-05T17:05:38.705Z,11.60
2022-10-05T17:09:29.351Z,13.45
2022-10-05T17:12:53.394Z,11.50
2022-10-05T17:16:07.779Z,12.88
2022-10-05T17:19:29.215Z,10.15
2022-10-05T17:22:39.675Z,9.70
2022-10-05T17:25:55.611Z,10.80
2022-10-05T17:29:08.884Z,9.60
2022-10-05T17:32:30.396Z,16.60
2022-10-05T17:35:58.211Z,11.82
2022-10-05T17:39:15.270Z,13.88
2022-10-05T17:42:26.277Z,16.08
2022-10-05T17:45:32.074Z,19.92
2022-10-05T17:48:42.772Z,14.18
2022-10-05T17:52:04.397Z,17.05
2022-10-05T17:55:38.338Z,16.95
2022-10-05T17:58:43.798Z,20.90
2022-10-05T18:02:20.867Z,22.35
2022-10-05T18:05:29.139Z,25.30
2022-10-05T18:08:37.851Z,23.52
2022-10-05T18:11:43.004Z,22.70
2022-10-05T18:15:00.572Z,28.25
2022-10-05T18:18:54.593Z,25.05
2022-10-05T18:22:02.686Z,25.62
2022-10-05T18:25:27.439Z,27.73
2022-10-05T18:29:13.658Z,19.95
2022-10-05T18:32:22.922Z,21.87
2022-10-05T18:35:39.354Z,21.27
2022-10-05T18:39:06.368Z,18.55
2022-10-05T18:42:14.792Z,19.33
2022-10-05T18:48:39.015Z,17.08
2022-10-05T18:52:00.612Z,20.52
2022-10-05T18:55:16.816Z,19.92
2022-10-05T18:58:26.501Z,19.77
2022-10-05T19:01:46.179Z,17.12
2022-10-05T19:08:58.736Z,19.52
2022-10-05T19:12:32.703Z,20.30
2022-10-05T19:15:50.394Z,15.07
2022-10-05T19:19:29.361Z,17.48
2022-10-05T19:23:05.302Z,24.05
2022-10-05T19:26:15.749Z,19.55
2022-10-05T19:29:55.108Z,17.50
2022-10-05T19:33:28.328Z,24.25
2022-10-05T19:36:59.176Z,17.67
2022-10-05T19:40:21.773Z,16.65
2022-10-05T19:43:38.566Z,17.98
2022-10-05T19:46:47.456Z,17.25
2022-10-05T19:49:58.891Z,14.52
2022-10-05T19:53:31.405Z,24.12
2022-10-05T19:56:45.731Z,19.55
2022-10-05T19:59:48.978Z,19.17
2022-10-05T20:03:07.906Z,23.30
2022-10-05T20:06:11.232Z,16.35
2022-10-05T20:09:21.528Z,17.60
2022-10-05T20:12:51.884Z,18.33
2022-10-05T20:16:31.148Z,18.42
2022-10-05T20:19:52.094Z,19.83
2022-10-05T20:23:20.543Z,18.58
2022-10-05T20:27:06.443Z,14.23
2022-10-05T20:30:11.866Z,14.65
2022-10-05T20:33:16.259Z,16.58
2022-10-05T20:36:18.529Z,16.55
2022-10-05T20:39:21.458Z,17.20
2022-10-05T20:42:45.773Z,15.52
2022-10-05T20:45:48.362Z,16.02
2022-10-05T20:48:52.581Z,14.20
2022-10-05T20:51:55.963Z,13.80
2022-10-05T20:54:58.928Z,13.73
2022-10-05T20:58:03.888Z,19.92
2022-10-05T21:01:26.769Z,19.23
2022-10-05T21:04:43.082Z,18.60
2022-10-05T21:07:45.495Z,12.93
2022-10-05T21:10:48.240Z,16.15
2022-10-05T21:13:51.555Z,16.73
2022-10-05T21:16:54.264Z,16.83
2022-10-05T21:19:56.745Z,18.20
2022-10-05T21:23:02.396Z,12.00
2022-10-05T21:26:08.032Z,21.10
2022-10-05T21:29:12.710Z,17.12
2022-10-05T21:32:16.682Z,13.25
2022-10-05T21:35:19.234Z,12.30
2022-10-05T21:38:21.667Z,13.05
2022-10-05T21:41:24.189Z,12.60
2022-10-05T21:44:26.485Z,16.08
2022-10-05T21:47:29.277Z,13.55
2022-10-05T21:50:32.826Z,18.17
2022-10-05T21:53:41.107Z,12.95
2022-10-05T21:56:46.587Z,15.60
2022-10-05T21:59:50.513Z,14.55
2022-10-05T22:02:52.736Z,10.43
2022-10-05T22:05:55.597Z,11.43
2022-10-05T22:08:59.582Z,11.02
2022-10-05T22:12:03.505Z,12.77
2022-10-05T22:15:07.138Z,12.23
2022-10-05T22:18:17.052Z,11.27
2022-10-05T22:21:21.239Z,12.85
2022-10-05T22:24:23.920Z,16.87
2022-10-05T22:27:29.330Z,13.52
2022-10-05T22:30:35.820Z,16.12
2022-10-05T22:33:38.896Z,13.13
2022-10-05T22:36:42.254Z,12.73
2022-10-05T22:39:45.754Z,18.90
2022-10-05T22:42:48.580Z,13.98
2022-10-05T22:45:52.452Z,11.27
2022-10-05T22:48:55.024Z,13.88
2022-10-05T22:51:57.390Z,16.23
2022-10-05T22:55:02.427Z,11.30
2022-10-05T22:58:04.708Z,13.85
2022-10-05T23:01:12.319Z,14.87
2022-10-05T23:04:14.577Z,13.45
2022-10-05T23:07:17.168Z,11.43
2022-10-05T23:10:19.535Z,14.13
2022-10-05T23:13:22.522Z,14.18
2022-10-05T23:16:27.103Z,17.33
2022-10-05T23:19:29.793Z,21.33
2022-10-05T23:22:35.654Z,18.10
2022-10-05T23:25:38.666Z,17.95
2022-10-05T23:28:46.584Z,13.15
2022-10-05T23:31:49.882Z,13.80
2022-10-05T23:34:52.092Z,17.58
2022-10-05T23:37:54.712Z,15.18
2022-10-05T23:40:59.848Z,17.33
2022-10-05T23:44:02.726Z,20.17
2022-10-05T23:47:05.056Z,13.93
2022-10-05T23:50:09.271Z,17.15
2022-10-05T23:53:11.653Z,13.80
2022-10-05T23:56:14.416Z,16.58
2022-10-05T23:59:16.881Z,13.02
